createdAt,value
2018-09-01T00:01:22.238Z,64.72
2018-09-01T00:03:49.694Z,64.90
2018-09-01T00:06:17.313Z,64.64
2018-09-01T00:08:44.809Z,64.92
2018-09-01T00:11:12.348Z,64.96
2018-09-01T00:13:39.870Z,65.02
2018-09-01T00:16:07.382Z,64.97
2018-09-01T00:18:34.802Z,64.98
2018-09-01T00:21:02.556Z,64.87
2018-09-01T00:23:29.974Z,65.22
2018-09-01T00:25:57.426Z,64.88
2018-09-01T00:28:25.351Z,65.42
2018-09-01T00:30:52.872Z,65.40
2018-09-01T00:33:20.350Z,65.27
2018-09-01T00:35:48.070Z,65.06
2018-09-01T00:38:20.965Z,65.20
2018-09-01T00:40:48.740Z,65.40
2018-09-01T00:43:16.197Z,65.73
2018-09-01T00:45:43.727Z,65.55
2018-09-01T00:48:11.352Z,65.54
2018-09-01T00:50:38.750Z,65.87
2018-09-01T00:53:06.288Z,65.85
2018-09-01T00:55:33.933Z,65.88
2018-09-01T00:58:02.058Z,65.92
2018-09-01T01:00:29.654Z,65.99
2018-09-01T01:02:57.252Z,65.47
2018-09-01T01:05:24.744Z,65.88
2018-09-01T01:07:52.216Z,65.54
2018-09-01T01:10:19.945Z,65.76
2018-09-01T01:12:48.319Z,65.95
2018-09-01T01:15:15.727Z,65.80
2018-09-01T01:17:43.478Z,65.82
2018-09-01T01:20:10.972Z,66.03
2018-09-01T01:22:38.463Z,66.07
2018-09-01T01:25:06.438Z,65.96
2018-09-01T01:27:34.095Z,66.00
2018-09-01T01:30:01.625Z,65.93
2018-09-01T01:32:29.385Z,65.83
2018-09-01T01:34:57.141Z,66.25
2018-09-01T01:37:24.621Z,65.95
2018-09-01T01:39:52.381Z,65.98
2018-09-01T01:42:20.620Z,66.34
2018-09-01T01:44:48.143Z,66.24
2018-09-01T01:47:15.650Z,66.12
2018-09-01T01:49:43.198Z,66.30
2018-09-01T01:52:10.713Z,66.48
2018-09-01T01:54:38.478Z,66.23
2018-09-01T01:57:05.971Z,66.25
2018-09-01T01:59:33.454Z,66.87
2018-09-01T02:02:01.918Z,66.53
2018-09-01T02:04:29.387Z,66.73
2018-09-01T02:06:56.826Z,66.40
2018-09-01T02:09:24.558Z,66.51
2018-09-01T02:11:51.995Z,67.01
2018-09-01T02:14:19.489Z,66.77
2018-09-01T02:16:47.222Z,66.95
2018-09-01T02:19:14.699Z,66.71
2018-09-01T02:21:42.177Z,66.77
2018-09-01T02:24:09.876Z,66.76
2018-09-01T02:26:37.443Z,66.98
2018-09-01T02:29:04.952Z,67.15
2018-09-01T02:31:32.609Z,66.94
2018-09-01T02:34:00.086Z,67.00
2018-09-01T02:36:27.542Z,66.82
2018-09-01T02:38:55.196Z,67.25
2018-09-01T02:41:22.672Z,67.12
2018-09-01T02:43:50.180Z,66.99
2018-09-01T02:46:17.792Z,66.88
2018-09-01T02:48:45.274Z,66.81
2018-09-01T02:51:12.704Z,66.93
2018-09-01T02:53:40.320Z,66.98
2018-09-01T02:56:07.769Z,67.02
2018-09-01T02:58:35.224Z,67.30
2018-09-01T03:01:08.242Z,67.05
2018-09-01T03:03:36.173Z,67.08
2018-09-01T03:06:03.723Z,67.60
2018-09-01T03:08:31.248Z,67.47
2018-09-01T03:10:59.011Z,67.35
2018-09-01T03:13:26.469Z,67.45
2018-09-01T03:15:53.952Z,67.48
2018-09-01T03:18:21.597Z,67.52
2018-09-01T03:20:49.081Z,67.67
2018-09-01T03:23:16.609Z,67.43
2018-09-01T03:25:44.194Z,67.57
2018-09-01T03:28:11.653Z,67.78
2018-09-01T03:30:39.239Z,67.63
2018-09-01T03:33:07.094Z,67.65
2018-09-01T03:35:34.578Z,67.39
2018-09-01T03:38:02.162Z,67.96
2018-09-01T03:40:29.786Z,67.41
2018-09-01T03:42:57.239Z,68.28
2018-09-01T03:45:24.767Z,67.47
2018-09-01T03:47:53.034Z,68.03
2018-09-01T03:50:20.501Z,67.87
2018-09-01T03:52:48.003Z,67.58
2018-09-01T03:55:15.672Z,67.65
2018-09-01T03:57:43.216Z,68.12
2018-09-01T04:00:10.679Z,68.28
2018-09-01T04:02:38.355Z,68.07
2018-09-01T04:05:06.415Z,68.05
2018-09-01T04:07:33.952Z,67.97
2018-09-01T04:10:01.700Z,67.84
2018-09-01T04:12:29.174Z,68.18
2018-09-01T04:14:56.642Z,67.97
2018-09-01T04:17:24.276Z,67.89
2018-09-01T04:19:51.797Z,68.46
2018-09-01T04:22:19.301Z,68.28
2018-09-01T04:24:46.852Z,68.16
2018-09-01T04:27:14.308Z,68.31
2018-09-01T04:29:41.723Z,68.29
2018-09-01T04:32:09.606Z,67.96
2018-09-01T04:34:37.045Z,68.18
2018-09-01T04:37:04.746Z,68.29
2018-09-01T04:39:32.453Z,68.20
2018-09-01T04:41:59.924Z,68.21
2018-09-01T04:44:28.464Z,68.12
2018-09-01T04:46:56.272Z,68.30
2018-09-01T04:49:23.710Z,68.58
2018-09-01T04:51:51.194Z,68.36
2018-09-01T04:54:18.920Z,68.52
2018-09-01T04:56:46.352Z,68.45
2018-09-01T04:59:13.864Z,68.36
2018-09-01T05:01:41.475Z,68.58
2018-09-01T05:04:08.898Z,68.84
2018-09-01T05:06:36.634Z,68.52
2018-09-01T05:09:05.694Z,68.88
2018-09-01T05:11:33.219Z,68.84
2018-09-01T05:14:00.670Z,68.86
2018-09-01T05:16:28.322Z,68.94
2018-09-01T05:18:55.869Z,68.98
2018-09-01T05:21:23.349Z,68.89
2018-09-01T05:23:51.164Z,68.98
2018-09-01T05:26:18.582Z,68.98
2018-09-01T05:28:46.145Z,68.98
2018-09-01T05:31:13.873Z,69.11
2018-09-01T05:33:41.425Z,69.02
2018-09-01T05:36:08.945Z,69.19
2018-09-01T05:38:36.591Z,69.37
2018-09-01T05:41:04.183Z,68.86
2018-09-01T05:43:31.674Z,68.91
2018-09-01T05:45:59.277Z,68.94
2018-09-01T05:48:26.744Z,69.08
2018-09-01T05:50:54.287Z,68.80
2018-09-01T05:53:21.958Z,69.24
2018-09-01T05:55:49.380Z,68.95
2018-09-01T05:58:16.820Z,69.48
2018-09-01T06:00:47.737Z,69.20
2018-09-01T06:03:15.449Z,69.29
2018-09-01T06:05:42.971Z,69.25
2018-09-01T06:08:10.738Z,69.30
2018-09-01T06:10:38.188Z,69.31
2018-09-01T06:13:05.841Z,69.47
2018-09-01T06:15:33.481Z,69.36
2018-09-01T06:18:01.057Z,69.26
2018-09-01T06:20:28.486Z,69.41
2018-09-01T06:22:56.220Z,69.31
2018-09-01T06:25:23.786Z,69.13
2018-09-01T06:27:52.740Z,69.06
2018-09-01T06:30:26.990Z,69.33
2018-09-01T06:32:54.623Z,69.27
2018-09-01T06:35:22.120Z,69.49
2018-09-01T06:37:49.837Z,69.51
2018-09-01T06:40:17.378Z,69.63
2018-09-01T06:42:44.775Z,69.15
2018-09-01T06:45:12.298Z,69.13
2018-09-01T06:47:39.855Z,69.60
2018-09-01T06:50:07.393Z,69.51
2018-09-01T06:52:35.012Z,69.16
2018-09-01T06:55:02.498Z,69.59
2018-09-01T06:57:29.962Z,69.54
2018-09-01T06:59:57.497Z,69.14
2018-09-01T07:02:24.972Z,69.76
2018-09-01T07:04:52.456Z,69.38
2018-09-01T07:07:20.017Z,69.35
2018-09-01T07:09:47.683Z,69.75
2018-09-01T07:12:15.177Z,69.38
2018-09-01T07:14:42.802Z,69.44
2018-09-01T07:17:10.281Z,69.66
2018-09-01T07:19:37.819Z,69.31
2018-09-01T07:22:05.403Z,69.26
2018-09-01T07:24:32.854Z,69.56
2018-09-01T07:27:00.359Z,69.54
2018-09-01T07:29:27.830Z,69.40
2018-09-01T07:31:55.337Z,69.63
2018-09-01T07:34:23.013Z,69.79
2018-09-01T07:36:50.613Z,69.91
2018-09-01T07:39:18.098Z,69.60
2018-09-01T07:41:45.618Z,69.41
2018-09-01T07:44:13.137Z,69.74
2018-09-01T07:46:40.683Z,69.65
2018-09-01T07:49:08.134Z,69.73
2018-09-01T07:51:35.710Z,69.48
2018-09-01T07:54:03.203Z,69.98
2018-09-01T07:56:30.681Z,69.59
2018-09-01T07:58:58.439Z,69.76
2018-09-01T08:01:25.921Z,69.75
2018-09-01T08:03:53.376Z,69.60
2018-09-01T08:06:51.747Z,69.80
2018-09-01T08:09:19.167Z,69.77
2018-09-01T08:11:46.911Z,69.16
2018-09-01T08:14:14.537Z,69.10
2018-09-01T08:16:42.005Z,69.13
2018-09-01T08:19:09.530Z,69.12
2018-09-01T08:21:37.144Z,68.83
2018-09-01T08:24:04.701Z,68.67
2018-09-01T08:26:32.196Z,68.59
2018-09-01T08:28:59.916Z,68.44
2018-09-01T08:31:27.385Z,68.50
2018-09-01T08:33:54.814Z,68.29
2018-09-01T08:36:22.611Z,67.98
2018-09-01T08:38:50.157Z,67.88
2018-09-01T08:41:17.616Z,67.86
2018-09-01T08:43:45.365Z,67.83
2018-09-01T08:46:12.865Z,67.98
2018-09-01T08:48:40.346Z,67.63
2018-09-01T08:51:08.039Z,67.18
2018-09-01T08:53:35.515Z,67.25
2018-09-01T08:56:03.037Z,67.13
2018-09-01T08:58:30.719Z,66.85
2018-09-01T09:00:58.096Z,66.09
2018-09-01T09:03:25.558Z,66.27
2018-09-01T09:05:53.159Z,65.90
2018-09-01T09:08:20.669Z,65.62
2018-09-01T09:10:48.125Z,64.86
2018-09-01T09:13:15.971Z,64.48
2018-09-01T09:15:43.473Z,64.43
2018-09-01T09:18:11.111Z,63.96
2018-09-01T09:20:38.907Z,63.69
2018-09-01T09:23:06.605Z,63.28
2018-09-01T09:25:34.012Z,63.33
2018-09-01T09:28:01.689Z,63.46
2018-09-01T09:30:29.133Z,63.43
2018-09-01T09:32:56.574Z,63.66
2018-09-01T09:35:24.243Z,63.30
2018-09-01T09:37:51.792Z,63.15
2018-09-01T09:40:19.268Z,62.78
2018-09-01T09:42:47.009Z,62.16
2018-09-01T09:45:14.503Z,61.12
2018-09-01T09:47:41.943Z,60.84
2018-09-01T09:50:09.802Z,60.15
2018-09-01T09:52:37.252Z,59.73
2018-09-01T09:55:04.835Z,58.75
2018-09-01T09:57:32.551Z,57.82
2018-09-01T10:00:00.031Z,57.71
2018-09-01T10:02:27.515Z,57.40
2018-09-01T10:04:55.234Z,56.57
2018-09-01T10:07:22.692Z,56.15
2018-09-01T10:09:50.231Z,55.20
2018-09-01T10:12:18.043Z,54.67
2018-09-01T10:14:45.659Z,55.18
2018-09-01T10:17:13.156Z,54.39
2018-09-01T10:19:40.900Z,53.65
2018-09-01T10:22:08.310Z,53.86
2018-09-01T10:24:35.813Z,52.96
2018-09-01T10:27:03.636Z,52.63
2018-09-01T10:29:31.036Z,51.58
2018-09-01T10:31:58.449Z,52.00
2018-09-01T10:34:26.116Z,51.61
2018-09-01T10:36:53.569Z,51.06
2018-09-01T10:39:21.011Z,50.58
2018-09-01T10:41:48.687Z,50.59
2018-09-01T10:44:16.228Z,50.14
2018-09-01T10:46:43.697Z,50.73
2018-09-01T10:49:11.322Z,50.37
2018-09-01T10:51:38.754Z,51.01
2018-09-01T10:54:06.262Z,51.50
2018-09-01T10:56:33.859Z,52.48
2018-09-01T10:59:01.440Z,52.86
2018-09-01T11:01:28.788Z,53.01
2018-09-01T11:03:56.453Z,53.10
2018-09-01T11:06:23.958Z,53.39
2018-09-01T11:08:51.398Z,54.00
2018-09-01T11:11:19.002Z,53.99
2018-09-01T11:13:46.463Z,53.78
2018-09-01T11:16:14.210Z,53.27
2018-09-01T11:18:41.751Z,53.50
2018-09-01T11:21:09.216Z,53.69
2018-09-01T11:23:36.730Z,54.45
2018-09-01T11:26:04.367Z,54.49
2018-09-01T11:28:31.871Z,55.12
2018-09-01T11:30:59.485Z,54.83
2018-09-01T11:33:27.127Z,55.22
2018-09-01T11:35:54.693Z,53.92
2018-09-01T11:38:22.210Z,53.41
2018-09-01T11:40:49.824Z,53.22
2018-09-01T11:43:17.371Z,53.01
2018-09-01T11:45:44.813Z,52.60
2018-09-01T11:48:12.427Z,52.06
2018-09-01T11:50:39.870Z,51.58
2018-09-01T11:53:07.463Z,51.05
2018-09-01T11:55:35.092Z,50.77
2018-09-01T11:58:02.608Z,50.71
2018-09-01T12:00:30.085Z,50.48
2018-09-01T12:02:57.643Z,49.68
2018-09-01T12:05:25.251Z,49.98
2018-09-01T12:07:52.695Z,49.61
2018-09-01T12:10:20.396Z,48.78
2018-09-01T12:12:47.882Z,49.15
2018-09-01T12:15:15.331Z,48.56
2018-09-01T12:17:43.109Z,48.11
2018-09-01T12:20:10.625Z,48.62
2018-09-01T12:22:38.030Z,48.44
2018-09-01T12:25:05.662Z,48.79
2018-09-01T12:27:33.161Z,48.06
2018-09-01T12:30:00.611Z,48.33
2018-09-01T12:32:28.281Z,47.95
2018-09-01T12:34:55.726Z,47.73
2018-09-01T12:37:23.179Z,47.95
2018-09-01T12:39:50.815Z,47.20
2018-09-01T12:42:18.306Z,47.16
2018-09-01T12:44:45.813Z,46.94
2018-09-01T12:47:13.358Z,47.17
2018-09-01T12:49:40.800Z,47.44
2018-09-01T12:52:08.287Z,47.69
2018-09-01T12:54:35.987Z,47.82
2018-09-01T12:57:03.462Z,48.85
2018-09-01T12:59:31.018Z,48.92
2018-09-01T13:01:58.705Z,48.89
2018-09-01T13:04:26.264Z,48.93
2018-09-01T13:06:53.740Z,49.47
2018-09-01T13:09:21.406Z,49.22
2018-09-01T13:11:48.852Z,49.77
2018-09-01T13:14:16.316Z,49.92
2018-09-01T13:16:44.035Z,50.12
2018-09-01T13:19:11.611Z,50.01
2018-09-01T13:21:39.109Z,50.59
2018-09-01T13:24:06.783Z,49.82
2018-09-01T13:26:34.266Z,50.00
2018-09-01T13:29:01.778Z,49.53
2018-09-01T13:31:29.418Z,50.03
2018-09-01T13:33:56.921Z,50.16
2018-09-01T13:36:24.434Z,49.72
2018-09-01T13:38:52.352Z,49.96
2018-09-01T13:41:19.753Z,50.17
2018-09-01T13:43:47.244Z,50.92
2018-09-01T13:46:15.099Z,50.55
2018-09-01T13:48:42.555Z,50.73
2018-09-01T13:51:09.990Z,51.02
2018-09-01T13:53:37.791Z,51.42
2018-09-01T13:56:05.313Z,51.88
2018-09-01T13:58:32.757Z,51.59
2018-09-01T14:01:00.320Z,52.18
2018-09-01T14:03:27.805Z,52.30
2018-09-01T14:05:55.361Z,52.45
2018-09-01T14:08:22.898Z,52.90
2018-09-01T14:10:50.372Z,53.07
2018-09-01T14:13:17.770Z,53.00
2018-09-01T14:15:45.307Z,52.92
2018-09-01T14:18:12.812Z,53.38
2018-09-01T14:20:40.355Z,52.89
2018-09-01T14:23:08.037Z,53.14
2018-09-01T14:25:35.458Z,53.64
2018-09-01T14:28:02.989Z,53.76
2018-09-01T14:30:30.679Z,53.31
2018-09-01T14:32:58.221Z,53.26
2018-09-01T14:35:25.631Z,53.52
2018-09-01T14:37:53.301Z,53.69
2018-09-01T14:40:20.830Z,53.90
2018-09-01T14:42:48.341Z,54.09
2018-09-01T14:45:15.979Z,54.63
2018-09-01T14:47:43.470Z,54.93
2018-09-01T14:50:11.027Z,54.70
2018-09-01T14:52:38.761Z,55.39
2018-09-01T14:55:06.281Z,55.15
2018-09-01T14:57:33.813Z,55.21
2018-09-01T15:00:01.410Z,55.16
2018-09-01T15:02:28.928Z,55.34
2018-09-01T15:04:56.411Z,56.02
2018-09-01T15:07:24.180Z,55.67
2018-09-01T15:09:51.654Z,56.14
2018-09-01T15:12:19.193Z,55.95
2018-09-01T15:14:46.954Z,56.50
2018-09-01T15:17:14.536Z,56.52
2018-09-01T15:19:41.998Z,57.03
2018-09-01T15:22:09.647Z,56.82
2018-09-01T15:25:40.203Z,57.33
2018-09-01T15:28:07.666Z,57.67
2018-09-01T15:30:35.131Z,57.41
2018-09-01T15:33:02.839Z,57.50
2018-09-01T15:35:30.449Z,57.75
2018-09-01T15:37:57.818Z,57.96
2018-09-01T15:40:25.726Z,58.49
2018-09-01T15:42:53.164Z,58.70
2018-09-01T15:45:20.615Z,58.72
2018-09-01T15:47:48.312Z,58.67
2018-09-01T15:50:15.767Z,58.65
2018-09-01T15:52:43.251Z,59.16
2018-09-01T15:55:10.942Z,59.40
2018-09-01T15:57:38.380Z,59.30
2018-09-01T16:00:06.008Z,59.44
2018-09-01T16:02:33.673Z,59.44
2018-09-01T16:05:01.131Z,59.06
2018-09-01T16:07:28.700Z,59.31
2018-09-01T16:09:56.294Z,59.17
2018-09-01T16:12:23.695Z,59.83
2018-09-01T16:14:51.181Z,59.84
2018-09-01T16:17:18.713Z,59.79
2018-09-01T16:19:46.183Z,60.02
2018-09-01T16:22:14.049Z,60.03
2018-09-01T16:24:41.835Z,60.09
2018-09-01T16:27:09.202Z,60.37
2018-09-01T16:29:36.652Z,60.35
2018-09-01T16:32:04.514Z,60.48
2018-09-01T16:34:32.033Z,60.57
2018-09-01T16:36:59.593Z,60.58
2018-09-01T16:39:27.214Z,60.71
2018-09-01T16:41:54.743Z,60.54
2018-09-01T16:44:22.205Z,61.01
2018-09-01T16:46:49.849Z,60.77
2018-09-01T16:49:17.318Z,61.13
2018-09-01T16:51:44.747Z,61.17
2018-09-01T16:54:12.359Z,61.04
2018-09-01T16:56:39.917Z,60.94
2018-09-01T16:59:07.370Z,61.27
2018-09-01T17:01:34.899Z,61.50
2018-09-01T17:04:02.434Z,61.62
2018-09-01T17:06:29.947Z,61.38
2018-09-01T17:08:57.586Z,61.77
2018-09-01T17:11:25.044Z,61.75
2018-09-01T17:13:52.477Z,61.74
2018-09-01T17:16:20.039Z,61.43
2018-09-01T17:18:47.462Z,61.89
2018-09-01T17:21:14.934Z,61.69
2018-09-01T17:23:42.696Z,62.05
2018-09-01T17:26:10.170Z,62.13
2018-09-01T17:28:37.675Z,62.18
2018-09-01T17:31:05.585Z,62.31
2018-09-01T17:33:33.100Z,62.52
2018-09-01T17:36:00.694Z,62.49
2018-09-01T17:38:28.390Z,62.25
2018-09-01T17:40:55.833Z,62.36
2018-09-01T17:43:23.514Z,62.76
2018-09-01T17:45:51.210Z,62.43
2018-09-01T17:48:18.927Z,62.46
2018-09-01T17:50:46.344Z,62.65
2018-09-01T17:53:14.183Z,63.22
2018-09-01T17:55:41.669Z,62.88
2018-09-01T17:58:09.085Z,63.04
2018-09-01T18:00:36.669Z,63.35
2018-09-01T18:03:04.144Z,64.04
2018-09-01T18:05:31.654Z,64.12
2018-09-01T18:07:59.170Z,64.44
2018-09-01T18:10:26.726Z,64.47
2018-09-01T18:12:54.265Z,64.18
2018-09-01T18:15:22.156Z,64.15
2018-09-01T18:17:49.635Z,64.49
2018-09-01T18:20:17.087Z,64.64
2018-09-01T18:22:44.713Z,64.13
2018-09-01T18:25:12.512Z,64.61
2018-09-01T18:27:39.970Z,64.73
2018-09-01T18:30:08.123Z,64.69
2018-09-01T18:32:35.632Z,64.80
2018-09-01T18:35:03.128Z,65.04
2018-09-01T18:37:30.644Z,65.02
2018-09-01T18:39:58.075Z,64.68
2018-09-01T18:42:25.673Z,65.12
2018-09-01T18:44:53.504Z,64.96
2018-09-01T18:47:35.766Z,65.33
2018-09-01T18:50:03.530Z,64.94
2018-09-01T18:52:37.631Z,64.97
2018-09-01T18:55:05.479Z,65.37
2018-09-01T18:57:32.987Z,65.57
2018-09-01T19:00:00.430Z,65.55
2018-09-01T19:02:28.209Z,65.29
2018-09-01T19:04:55.702Z,65.19
2018-09-01T19:07:23.140Z,65.65
2018-09-01T19:09:50.829Z,65.41
2018-09-01T19:12:18.244Z,65.78
2018-09-01T19:14:45.712Z,65.70
2018-09-01T19:17:13.350Z,65.61
2018-09-01T19:19:40.801Z,66.10
2018-09-01T19:22:08.266Z,66.07
2018-09-01T19:24:35.901Z,66.25
2018-09-01T19:27:03.783Z,65.71
2018-09-01T19:29:31.210Z,66.09
2018-09-01T19:31:58.862Z,66.00
2018-09-01T19:34:26.272Z,66.25
2018-09-01T19:36:53.709Z,66.02
2018-09-01T19:39:21.409Z,65.94
2018-09-01T19:41:48.878Z,66.65
2018-09-01T19:44:16.406Z,66.28
2018-09-01T19:46:44.176Z,66.37
2018-09-01T19:49:11.697Z,66.36
2018-09-01T19:51:39.202Z,66.87
2018-09-01T19:54:06.904Z,67.07
2018-09-01T19:56:34.446Z,67.48
2018-09-01T19:59:01.910Z,67.04
2018-09-01T20:01:29.613Z,67.01
2018-09-01T20:03:57.107Z,67.27
2018-09-01T20:06:24.544Z,67.02
2018-09-01T20:08:52.268Z,66.87
2018-09-01T20:11:19.716Z,67.37
2018-09-01T20:13:47.329Z,66.88
2018-09-01T20:16:14.891Z,67.00
2018-09-01T20:18:42.344Z,66.87
2018-09-01T20:21:09.775Z,67.55
2018-09-01T20:23:37.428Z,66.56
2018-09-01T20:26:04.938Z,67.04
2018-09-01T20:28:32.475Z,66.97
2018-09-01T20:30:59.983Z,67.32
2018-09-01T20:33:27.439Z,67.18
2018-09-01T20:35:55.824Z,67.30
2018-09-01T20:38:24.128Z,67.00
2018-09-01T20:40:51.572Z,67.38
2018-09-01T20:43:19.044Z,67.15
2018-09-01T20:45:46.599Z,67.07
2018-09-01T20:48:14.025Z,67.37
2018-09-01T20:50:41.541Z,67.52
2018-09-01T20:53:09.138Z,67.37
2018-09-01T20:55:36.616Z,67.24
2018-09-01T20:58:04.188Z,66.98
2018-09-01T21:00:31.742Z,67.19
2018-09-01T21:02:59.207Z,67.03
2018-09-01T21:05:26.664Z,67.24
2018-09-01T21:07:54.673Z,67.73
2018-09-01T21:10:22.253Z,67.74
2018-09-01T21:12:49.775Z,67.85
2018-09-01T21:15:17.322Z,67.86
2018-09-01T21:17:44.845Z,67.60
2018-09-01T21:20:12.325Z,67.57
2018-09-01T21:22:40.039Z,67.71
2018-09-01T21:25:07.672Z,67.95
2018-09-01T21:27:35.224Z,67.57
2018-09-01T21:30:02.963Z,67.63
2018-09-01T21:32:30.424Z,67.46
2018-09-01T21:34:57.888Z,67.87
2018-09-01T21:37:25.307Z,67.45
2018-09-01T21:39:52.891Z,68.04
2018-09-01T21:42:20.365Z,67.39
2018-09-01T21:44:47.941Z,67.35
2018-09-01T21:47:15.474Z,67.80
2018-09-01T21:49:43.032Z,67.82
2018-09-01T21:52:10.553Z,67.79
2018-09-01T21:54:37.956Z,67.88
2018-09-01T21:57:05.786Z,67.88
2018-09-01T21:59:33.488Z,67.71
2018-09-01T22:02:06.601Z,67.61
2018-09-01T22:05:38.882Z,67.91
2018-09-01T22:08:06.380Z,67.77
2018-09-01T22:10:33.967Z,68.07
2018-09-01T22:13:01.480Z,68.08
2018-09-01T22:15:29.005Z,67.63
2018-09-01T22:17:56.591Z,67.74
2018-09-01T22:20:24.133Z,67.90
2018-09-01T22:22:51.559Z,68.00
2018-09-01T22:25:19.220Z,67.70
2018-09-01T22:27:46.658Z,67.78
2018-09-01T22:30:14.358Z,68.21
2018-09-01T22:32:42.033Z,67.83
2018-09-01T22:35:09.582Z,67.81
2018-09-01T22:37:37.022Z,67.84
2018-09-01T22:40:04.830Z,68.10
2018-09-01T22:42:32.293Z,68.31
2018-09-01T22:44:59.817Z,68.45
2018-09-01T22:47:29.080Z,68.10
2018-09-01T22:52:30.823Z,68.07
2018-09-01T22:54:58.296Z,68.42
2018-09-01T22:57:25.794Z,68.23
2018-09-01T22:59:53.528Z,68.09
2018-09-01T23:02:20.937Z,68.22
2018-09-01T23:04:48.458Z,68.48
2018-09-01T23:07:22.817Z,68.52
2018-09-01T23:09:50.304Z,68.80
2018-09-01T23:12:17.749Z,69.03
2018-09-01T23:14:45.449Z,68.87
2018-09-01T23:17:12.882Z,68.68
2018-09-01T23:19:40.385Z,68.73
2018-09-01T23:22:08.001Z,68.90
2018-09-01T23:24:35.486Z,68.59
2018-09-01T23:27:03.006Z,68.40
2018-09-01T23:29:30.709Z,68.66
2018-09-01T23:31:58.436Z,69.03
2018-09-01T23:34:25.909Z,69.08
2018-09-01T23:36:53.662Z,68.61
2018-09-01T23:39:21.146Z,69.20
2018-09-01T23:41:48.585Z,69.00
2018-09-01T23:44:16.212Z,68.62
2018-09-01T23:46:43.700Z,68.74
2018-09-01T23:49:11.174Z,69.18
2018-09-01T23:51:38.911Z,69.11
2018-09-01T23:54:06.359Z,69.45
2018-09-01T23:56:33.889Z,69.61
2018-09-01T23:59:01.622Z,69.87
